createdAt,value
2022-09-11T00:00:39.687Z,31.50
2022-09-11T00:03:07.689Z,31.53
2022-09-11T00:05:39.356Z,29.77
2022-09-11T00:08:07.868Z,31.40
2022-09-11T00:10:40.085Z,30.17
2022-09-11T00:13:11.823Z,29.20
2022-09-11T00:15:39.883Z,25.60
2022-09-11T00:18:07.694Z,26.07
2022-09-11T00:20:34.861Z,22.80
2022-09-11T00:23:05.032Z,27.67
2022-09-11T00:25:35.905Z,32.70
2022-09-11T00:28:02.945Z,29.43
2022-09-11T00:30:29.815Z,29.87
2022-09-11T00:32:56.490Z,32.00
2022-09-11T00:35:23.725Z,27.30
2022-09-11T00:37:50.337Z,27.13
2022-09-11T00:40:17.996Z,28.00
2022-09-11T00:42:44.777Z,26.53
2022-09-11T00:45:21.101Z,28.63
2022-09-11T00:47:49.062Z,29.13
2022-09-11T00:50:19.933Z,26.80
2022-09-11T00:52:58.818Z,31.80
2022-09-11T00:55:27.850Z,27.80
2022-09-11T00:57:59.519Z,31.60
2022-09-11T01:00:26.040Z,27.17
2022-09-11T01:02:53.526Z,27.53
2022-09-11T01:05:22.412Z,25.87
2022-09-11T01:07:54.153Z,21.93
2022-09-11T01:10:27.107Z,23.90
2022-09-11T01:13:06.484Z,27.73
2022-09-11T01:15:38.974Z,26.60
2022-09-11T01:18:21.769Z,27.73
2022-09-11T01:21:26.012Z,26.70
2022-09-11T01:24:01.218Z,26.17
2022-09-11T01:26:52.205Z,28.83
2022-09-11T01:29:22.053Z,29.13
2022-09-11T01:32:05.657Z,28.90
2022-09-11T01:34:52.723Z,30.03
2022-09-11T01:37:31.292Z,30.93
2022-09-11T01:40:01.694Z,27.40
2022-09-11T01:42:31.554Z,31.63
2022-09-11T01:44:58.073Z,31.50
2022-09-11T01:47:26.086Z,29.27
2022-09-11T01:50:09.390Z,31.50
2022-09-11T01:52:42.193Z,27.47
2022-09-11T01:55:21.540Z,27.77
2022-09-11T01:57:51.041Z,28.47
2022-09-11T02:00:17.745Z,27.30
2022-09-11T02:02:59.049Z,26.90
2022-09-11T02:05:30.283Z,27.40
2022-09-11T02:08:02.326Z,26.60
2022-09-11T02:10:40.829Z,27.63
2022-09-11T02:13:14.598Z,29.83
2022-09-11T02:15:48.928Z,30.20
2022-09-11T02:18:37.664Z,27.37
2022-09-11T02:21:04.346Z,29.37
2022-09-11T02:23:30.815Z,27.37
2022-09-11T02:25:57.285Z,26.27
2022-09-11T02:28:23.943Z,28.03
2022-09-11T02:30:50.418Z,27.73
2022-09-11T02:33:27.889Z,29.33
2022-09-11T02:35:58.915Z,30.50
2022-09-11T02:38:30.146Z,28.47
2022-09-11T02:41:18.149Z,28.60
2022-09-11T02:44:09.580Z,27.17
2022-09-11T02:47:06.134Z,28.90
2022-09-11T02:49:51.484Z,28.13
2022-09-11T02:52:36.812Z,30.10
2022-09-11T02:55:40.492Z,27.27
2022-09-11T02:58:13.452Z,28.67
2022-09-11T03:00:40.325Z,26.60
2022-09-11T03:03:07.458Z,29.40
2022-09-11T03:05:35.440Z,29.30
2022-09-11T03:08:04.329Z,29.67
2022-09-11T03:10:30.831Z,28.33
2022-09-11T03:12:59.547Z,30.93
2022-09-11T03:15:26.714Z,28.33
2022-09-11T03:17:53.198Z,29.80
2022-09-11T03:20:20.788Z,30.43
2022-09-11T03:22:47.494Z,29.57
2022-09-11T03:25:15.027Z,29.30
2022-09-11T03:27:42.157Z,28.27
2022-09-11T03:30:09.814Z,32.00
2022-09-11T03:32:36.254Z,31.40
2022-09-11T03:35:02.748Z,30.43
2022-09-11T03:37:29.332Z,31.53
2022-09-11T03:39:55.870Z,28.70
2022-09-11T03:42:22.392Z,32.57
2022-09-11T03:44:48.987Z,31.57
2022-09-11T03:47:15.520Z,32.63
2022-09-11T03:49:41.990Z,34.97
2022-09-11T03:52:08.683Z,33.50
2022-09-11T03:54:35.495Z,34.40
2022-09-11T03:57:02.219Z,33.10
2022-09-11T03:59:29.135Z,33.03
2022-09-11T04:01:55.643Z,32.20
2022-09-11T04:04:22.302Z,33.30
2022-09-11T04:06:48.955Z,30.80
2022-09-11T04:09:15.701Z,33.63
2022-09-11T04:11:43.099Z,36.17
2022-09-11T04:14:09.789Z,34.53
2022-09-11T04:16:36.476Z,32.73
2022-09-11T04:19:03.627Z,32.13
2022-09-11T04:21:31.212Z,33.97
2022-09-11T04:24:00.419Z,35.80
2022-09-11T04:26:32.114Z,36.33
2022-09-11T04:29:01.820Z,40.80
2022-09-11T04:31:28.408Z,37.70
2022-09-11T04:33:57.748Z,38.20
2022-09-11T04:36:26.882Z,41.37
2022-09-11T04:38:58.267Z,38.63
2022-09-11T04:41:25.411Z,40.07
2022-09-11T04:43:57.000Z,40.57
2022-09-11T04:46:25.780Z,38.97
2022-09-11T04:48:55.425Z,38.40
2022-09-11T04:51:24.614Z,36.37
2022-09-11T04:53:52.176Z,40.10
2022-09-11T04:56:20.712Z,40.93
2022-09-11T04:58:55.870Z,39.57
2022-09-11T05:01:23.759Z,42.03
2022-09-11T05:03:50.310Z,40.10
2022-09-11T05:06:16.775Z,41.17
2022-09-11T05:08:47.159Z,38.67
2022-09-11T05:11:15.764Z,38.30
2022-09-11T05:13:42.781Z,39.90
2022-09-11T05:16:17.341Z,43.90
2022-09-11T05:18:51.985Z,43.17
2022-09-11T05:21:19.111Z,39.60
2022-09-11T05:23:50.448Z,42.83
2022-09-11T05:26:19.495Z,41.50
2022-09-11T05:28:45.991Z,42.80
2022-09-11T05:31:17.625Z,39.70
2022-09-11T05:33:47.361Z,40.90
2022-09-11T05:36:15.546Z,40.97
2022-09-11T05:38:42.809Z,44.87
2022-09-11T05:41:11.623Z,42.23
2022-09-11T05:43:39.039Z,39.53
2022-09-11T05:46:07.037Z,39.20
2022-09-11T05:48:36.656Z,44.23
2022-09-11T05:51:07.382Z,39.67
2022-09-11T05:53:34.253Z,41.93
2022-09-11T05:56:13.980Z,36.83
2022-09-11T05:58:40.872Z,39.60
2022-09-11T06:01:09.996Z,37.37
2022-09-11T06:03:37.264Z,38.27
2022-09-11T06:06:06.643Z,42.30
2022-09-11T06:08:34.549Z,36.50
2022-09-11T06:11:02.699Z,37.00
2022-09-11T06:13:30.147Z,40.57
2022-09-11T06:15:56.665Z,33.73
2022-09-11T06:18:23.139Z,35.07
2022-09-11T06:21:00.966Z,33.53
2022-09-11T06:23:27.565Z,35.10
2022-09-11T06:25:54.412Z,34.17
2022-09-11T06:28:24.085Z,35.40
2022-09-11T06:30:51.038Z,34.73
2022-09-11T06:33:20.526Z,38.60
2022-09-11T06:35:58.167Z,36.87
2022-09-11T06:38:25.881Z,36.70
2022-09-11T06:40:52.905Z,34.80
2022-09-11T06:43:19.686Z,38.33
2022-09-11T06:45:48.234Z,37.00
2022-09-11T06:48:19.072Z,36.57
2022-09-11T06:50:45.829Z,39.37
2022-09-11T06:53:13.116Z,33.80
2022-09-11T06:55:40.518Z,32.10
2022-09-11T06:58:08.452Z,33.30
2022-09-11T07:00:36.118Z,35.03
2022-09-11T07:03:04.054Z,32.20
2022-09-11T07:05:31.004Z,33.67
2022-09-11T07:07:57.879Z,37.67
2022-09-11T07:10:25.029Z,33.43
2022-09-11T07:12:55.747Z,32.13
2022-09-11T07:15:22.522Z,31.53
2022-09-11T07:17:49.126Z,33.27
2022-09-11T07:20:17.153Z,30.80
2022-09-11T07:22:45.484Z,33.63
2022-09-11T07:25:12.369Z,29.80
2022-09-11T07:27:38.863Z,29.60
2022-09-11T07:30:05.963Z,29.17
2022-09-11T07:32:32.531Z,28.83
2022-09-11T07:35:01.665Z,26.83
2022-09-11T07:37:28.161Z,25.30
2022-09-11T07:39:54.633Z,24.90
2022-09-11T07:42:21.142Z,24.10
2022-09-11T07:44:47.728Z,24.70
2022-09-11T07:47:14.178Z,25.50
2022-09-11T07:49:40.661Z,25.77
2022-09-11T07:52:07.149Z,22.70
2022-09-11T07:54:33.705Z,25.90
2022-09-11T07:57:00.415Z,20.77
2022-09-11T07:59:27.822Z,21.70
2022-09-11T08:01:56.251Z,22.93
2022-09-11T08:04:22.854Z,22.30
2022-09-11T08:06:49.637Z,21.40
2022-09-11T08:09:16.288Z,22.20
2022-09-11T08:11:48.689Z,22.60
2022-09-11T08:14:17.528Z,20.53
2022-09-11T08:16:44.838Z,19.00
2022-09-11T08:19:17.470Z,19.20
2022-09-11T08:21:44.537Z,20.57
2022-09-11T08:24:18.283Z,18.13
2022-09-11T08:26:48.743Z,18.53
2022-09-11T08:29:16.228Z,18.60
2022-09-11T08:31:42.743Z,19.40
2022-09-11T08:34:09.838Z,20.50
2022-09-11T08:36:36.814Z,19.67
2022-09-11T08:39:03.720Z,19.80
2022-09-11T08:41:56.448Z,19.20
2022-09-11T08:44:44.109Z,17.20
2022-09-11T08:47:22.172Z,18.30
2022-09-11T08:49:57.411Z,19.00
2022-09-11T08:52:24.075Z,18.93
2022-09-11T08:54:51.757Z,19.80
2022-09-11T08:57:18.184Z,18.93
2022-09-11T08:59:50.715Z,19.40
2022-09-11T09:03:02.989Z,20.23
2022-09-11T09:05:53.205Z,21.40
2022-09-11T09:08:44.779Z,20.30
2022-09-11T09:11:20.442Z,20.13
2022-09-11T09:14:06.705Z,20.50
2022-09-11T09:16:43.946Z,19.97
2022-09-11T09:19:15.080Z,21.60
2022-09-11T09:21:49.785Z,22.93
2022-09-11T09:24:22.034Z,31.23
2022-09-11T09:26:52.584Z,32.80
2022-09-11T09:29:22.792Z,32.70
2022-09-11T09:32:00.001Z,34.40
2022-09-11T09:34:30.912Z,36.53
2022-09-11T09:37:04.363Z,30.40
2022-09-11T09:39:31.607Z,30.17
2022-09-11T09:42:14.862Z,29.80
2022-09-11T09:44:50.494Z,32.80
2022-09-11T09:47:17.409Z,33.33
2022-09-11T09:49:44.985Z,28.87
2022-09-11T09:52:20.223Z,31.07
2022-09-11T09:55:01.656Z,32.30
2022-09-11T09:57:39.852Z,34.70
2022-09-11T10:00:15.655Z,32.17
2022-09-11T10:02:50.846Z,30.27
2022-09-11T10:05:29.564Z,29.50
2022-09-11T10:07:57.120Z,24.80
2022-09-11T10:10:29.242Z,21.90
2022-09-11T10:13:18.178Z,24.50
2022-09-11T10:15:48.291Z,25.70
2022-09-11T10:18:30.786Z,24.07
2022-09-11T10:21:12.242Z,23.93
2022-09-11T10:23:47.107Z,23.23
2022-09-11T10:26:38.905Z,24.73
2022-09-11T10:29:13.332Z,24.27
2022-09-11T10:31:41.434Z,24.87
2022-09-11T10:34:14.914Z,26.40
2022-09-11T10:37:03.765Z,24.63
2022-09-11T10:39:32.775Z,24.80
2022-09-11T10:42:02.064Z,31.13
2022-09-11T10:44:29.674Z,33.30
2022-09-11T10:47:03.925Z,35.27
2022-09-11T10:49:30.478Z,33.87
2022-09-11T10:52:09.148Z,32.30
2022-09-11T10:54:48.229Z,31.43
2022-09-11T10:57:17.898Z,28.20
2022-09-11T10:59:56.920Z,28.70
2022-09-11T11:02:35.273Z,26.37
2022-09-11T11:05:05.511Z,28.00
2022-09-11T11:08:12.093Z,28.43
2022-09-11T11:10:51.197Z,28.57
2022-09-11T11:13:36.563Z,28.47
2022-09-11T11:16:23.141Z,28.97
2022-09-11T11:19:02.440Z,29.03
2022-09-11T11:21:28.914Z,27.93
2022-09-11T11:24:12.138Z,28.83
2022-09-11T11:26:59.633Z,29.40
2022-09-11T11:29:51.023Z,31.17
2022-09-11T11:32:35.323Z,30.20
2022-09-11T11:35:26.725Z,30.77
2022-09-11T11:38:06.860Z,29.77
2022-09-11T11:40:42.431Z,31.77
2022-09-11T11:43:11.731Z,29.53
2022-09-11T11:45:48.202Z,30.87
2022-09-11T11:48:19.138Z,29.43
2022-09-11T11:50:49.273Z,28.40
2022-09-11T11:54:12.234Z,24.20
2022-09-11T11:56:46.124Z,21.63
2022-09-11T11:59:15.933Z,20.73
2022-09-11T12:01:50.395Z,26.00
2022-09-11T12:04:37.547Z,28.60
2022-09-11T12:07:04.624Z,27.07
2022-09-11T12:09:33.811Z,28.97
2022-09-11T12:12:04.895Z,27.90
2022-09-11T12:14:33.778Z,27.70
2022-09-11T12:17:17.807Z,26.70
2022-09-11T12:20:09.265Z,26.73
2022-09-11T12:22:40.509Z,28.03
2022-09-11T12:25:19.571Z,24.90
2022-09-11T12:27:46.018Z,28.03
2022-09-11T12:30:15.971Z,32.27
2022-09-11T12:32:59.946Z,32.70
2022-09-11T12:35:26.463Z,29.30
2022-09-11T12:37:59.111Z,29.80
2022-09-11T12:40:32.927Z,29.47
2022-09-11T12:43:33.897Z,30.80
2022-09-11T12:46:02.134Z,30.87
2022-09-11T12:48:56.220Z,29.97
2022-09-11T12:51:35.300Z,29.23
2022-09-11T12:54:04.828Z,29.77
2022-09-11T12:56:35.959Z,26.93
2022-09-11T12:59:09.356Z,26.27
2022-09-11T13:01:37.777Z,26.30
2022-09-11T13:04:24.717Z,27.20
2022-09-11T13:06:58.067Z,24.07
2022-09-11T13:09:27.985Z,19.43
2022-09-11T13:11:57.136Z,19.43
2022-09-11T13:14:29.515Z,24.00
2022-09-11T13:16:56.944Z,22.60
2022-09-11T13:19:24.509Z,21.87
2022-09-11T13:21:56.612Z,23.00
2022-09-11T13:24:26.146Z,23.83
2022-09-11T13:26:55.215Z,22.67
2022-09-11T13:29:23.078Z,21.07
2022-09-11T13:31:49.793Z,22.90
2022-09-11T13:34:17.500Z,19.83
2022-09-11T13:36:44.697Z,22.40
2022-09-11T13:39:14.444Z,20.83
2022-09-11T13:41:46.809Z,19.03
2022-09-11T13:44:40.464Z,17.90
2022-09-11T13:47:17.688Z,18.90
2022-09-11T13:49:45.031Z,18.30
2022-09-11T13:52:12.675Z,18.53
2022-09-11T13:55:12.490Z,18.97
2022-09-11T13:57:51.101Z,18.07
2022-09-11T14:00:36.476Z,16.80
2022-09-11T14:03:06.821Z,16.43
2022-09-11T14:05:33.861Z,17.53
2022-09-11T14:08:07.495Z,18.57
2022-09-11T14:10:43.243Z,19.43
2022-09-11T14:13:32.977Z,18.07
2022-09-11T14:16:02.226Z,16.73
2022-09-11T14:18:40.553Z,17.27
2022-09-11T14:21:16.068Z,16.10
2022-09-11T14:24:01.288Z,17.13
2022-09-11T14:26:30.903Z,17.13
2022-09-11T14:29:00.980Z,18.03
2022-09-11T14:31:37.922Z,17.10
2022-09-11T14:34:13.285Z,17.53
2022-09-11T14:36:44.114Z,16.53
2022-09-11T14:39:18.821Z,16.40
2022-09-11T14:41:45.643Z,17.30
2022-09-11T14:44:13.995Z,17.10
2022-09-11T14:46:40.568Z,15.43
2022-09-11T14:49:09.576Z,15.83
2022-09-11T14:51:37.652Z,15.70
2022-09-11T14:54:05.566Z,15.27
2022-09-11T14:56:32.242Z,14.10
2022-09-11T14:58:58.866Z,13.23
2022-09-11T15:01:28.365Z,13.77
2022-09-11T15:03:56.901Z,14.90
2022-09-11T15:06:24.256Z,15.90
2022-09-11T15:08:51.578Z,15.63
2022-09-11T15:11:18.156Z,15.57
2022-09-11T15:14:10.907Z,15.00
2022-09-11T15:16:31.380Z,16.50
2022-09-11T15:19:00.876Z,14.27
2022-09-11T15:21:27.779Z,14.80
2022-09-11T15:23:55.242Z,15.17
2022-09-11T15:26:21.754Z,16.17
2022-09-11T15:28:53.251Z,15.40
2022-09-11T15:31:20.131Z,14.80
2022-09-11T15:33:53.331Z,15.33
2022-09-11T15:36:25.119Z,14.67
2022-09-11T15:38:55.179Z,14.87
2022-09-11T15:41:22.729Z,13.93
2022-09-11T15:43:50.414Z,14.50
2022-09-11T15:46:18.973Z,14.47
2022-09-11T15:48:45.757Z,16.17
2022-09-11T15:51:17.484Z,14.70
2022-09-11T15:53:47.143Z,14.20
2022-09-11T15:56:21.641Z,15.00
2022-09-11T15:58:52.384Z,14.10
2022-09-11T16:01:21.770Z,12.63
2022-09-11T16:03:57.173Z,13.60
2022-09-11T16:06:26.224Z,14.60
2022-09-11T16:08:57.345Z,15.07
2022-09-11T16:11:25.058Z,13.67
2022-09-11T16:13:52.852Z,12.87
2022-09-11T16:16:20.376Z,13.50
2022-09-11T16:18:47.261Z,12.50
2022-09-11T16:21:15.789Z,14.27
2022-09-11T16:23:43.764Z,11.77
2022-09-11T16:26:18.660Z,13.00
2022-09-11T16:28:47.028Z,12.37
2022-09-11T16:31:14.516Z,12.57
2022-09-11T16:33:44.188Z,12.07
2022-09-11T16:36:17.077Z,12.00
2022-09-11T16:38:44.590Z,11.57
2022-09-11T16:41:18.800Z,12.33
2022-09-11T16:43:52.542Z,13.17
2022-09-11T16:46:24.924Z,11.03
2022-09-11T16:48:54.109Z,11.93
2022-09-11T16:51:23.452Z,12.23
2022-09-11T16:53:50.694Z,10.80
2022-09-11T16:56:20.295Z,10.37
2022-09-11T16:58:47.544Z,11.03
2022-09-11T17:01:19.296Z,11.40
2022-09-11T17:03:48.525Z,10.50
2022-09-11T17:06:16.226Z,10.63
2022-09-11T17:08:44.552Z,10.63
2022-09-11T17:11:13.987Z,11.67
2022-09-11T17:13:42.061Z,11.00
2022-09-11T17:16:15.916Z,10.20
2022-09-11T17:18:47.312Z,10.47
2022-09-11T17:21:15.239Z,11.30
2022-09-11T17:23:42.202Z,11.07
2022-09-11T17:26:10.550Z,11.10
2022-09-11T17:28:37.510Z,12.27
2022-09-11T17:31:06.168Z,10.20
2022-09-11T17:33:32.717Z,11.17
2022-09-11T17:35:59.691Z,11.30
2022-09-11T17:38:26.649Z,12.70
2022-09-11T17:40:57.818Z,11.20
2022-09-11T17:43:24.698Z,13.40
2022-09-11T17:45:52.302Z,12.93
2022-09-11T17:48:20.101Z,12.13
2022-09-11T17:50:47.482Z,11.83
2022-09-11T17:53:14.348Z,12.03
2022-09-11T17:55:42.264Z,11.97
2022-09-11T17:58:08.874Z,11.97
2022-09-11T18:00:35.706Z,12.30
2022-09-11T18:03:02.271Z,12.13
2022-09-11T18:05:28.838Z,12.60
2022-09-11T18:07:59.936Z,12.00
2022-09-11T18:10:27.716Z,12.77
2022-09-11T18:12:54.238Z,12.00
2022-09-11T18:15:21.176Z,12.20
2022-09-11T18:17:48.076Z,10.97
2022-09-11T18:20:15.013Z,12.47
2022-09-11T18:22:42.438Z,12.60
2022-09-11T18:25:09.939Z,11.80
2022-09-11T18:27:36.658Z,13.00
2022-09-11T18:30:05.924Z,12.37
2022-09-11T18:32:33.006Z,12.13
2022-09-11T18:35:00.044Z,13.07
2022-09-11T18:37:26.764Z,15.10
2022-09-11T18:39:53.425Z,14.70
2022-09-11T18:42:19.941Z,14.00
2022-09-11T18:44:46.445Z,13.47
2022-09-11T18:47:17.608Z,12.07
2022-09-11T18:49:46.017Z,12.60
2022-09-11T18:52:15.148Z,13.90
2022-09-11T18:54:41.691Z,14.13
2022-09-11T18:57:08.974Z,12.30
2022-09-11T18:59:35.496Z,13.93
2022-09-11T19:02:02.368Z,13.07
2022-09-11T19:04:28.951Z,12.80
2022-09-11T19:06:55.489Z,13.57
2022-09-11T19:09:22.144Z,13.27
2022-09-11T19:11:48.659Z,13.33
2022-09-11T19:14:15.528Z,13.07
2022-09-11T19:16:42.564Z,13.73
2022-09-11T19:19:09.332Z,28.23
2022-09-11T19:21:37.763Z,22.10
2022-09-11T19:24:04.649Z,16.17
2022-09-11T19:26:34.445Z,13.93
2022-09-11T19:29:01.179Z,15.20
2022-09-11T19:31:29.601Z,15.63
2022-09-11T19:33:57.354Z,15.23
2022-09-11T19:36:28.619Z,14.73
2022-09-11T19:39:01.679Z,15.67
2022-09-11T19:41:34.665Z,14.90
2022-09-11T19:44:02.330Z,14.97
2022-09-11T19:46:30.245Z,14.13
2022-09-11T19:49:00.753Z,14.43
2022-09-11T19:51:30.121Z,15.10
2022-09-11T19:53:57.794Z,13.70
2022-09-11T19:56:25.905Z,12.90
2022-09-11T19:58:53.224Z,15.20
2022-09-11T20:01:22.713Z,15.60
2022-09-11T20:03:51.036Z,12.70
2022-09-11T20:06:18.617Z,13.20
2022-09-11T20:08:47.121Z,14.53
2022-09-11T20:11:16.871Z,14.27
2022-09-11T20:13:43.943Z,13.47
2022-09-11T20:16:13.138Z,15.33
2022-09-11T20:18:39.679Z,15.07
2022-09-11T20:21:08.434Z,14.17
2022-09-11T20:23:35.647Z,14.10
2022-09-11T20:26:17.608Z,14.57
2022-09-11T20:28:49.736Z,13.90
2022-09-11T20:31:17.325Z,13.73
2022-09-11T20:33:44.940Z,14.20
2022-09-11T20:36:14.898Z,13.97
2022-09-11T20:38:41.589Z,15.20
2022-09-11T20:41:13.790Z,13.90
2022-09-11T20:43:41.437Z,14.30
2022-09-11T20:46:08.436Z,14.37
2022-09-11T20:48:35.058Z,14.80
2022-09-11T20:51:10.122Z,15.93
2022-09-11T20:53:38.092Z,16.83
2022-09-11T20:56:09.626Z,15.40
2022-09-11T20:58:36.866Z,17.07
2022-09-11T21:01:04.409Z,18.27
2022-09-11T21:03:31.262Z,17.57
2022-09-11T21:05:58.314Z,16.00
2022-09-11T21:08:27.623Z,14.87
2022-09-11T21:10:54.095Z,14.57
2022-09-11T21:13:20.534Z,14.80
2022-09-11T21:15:48.225Z,14.80
2022-09-11T21:18:15.008Z,14.53
2022-09-11T21:20:41.856Z,14.73
2022-09-11T21:23:08.355Z,15.60
2022-09-11T21:25:40.084Z,17.00
2022-09-11T21:28:06.697Z,17.20
2022-09-11T21:30:33.267Z,16.20
2022-09-11T21:32:59.752Z,17.20
2022-09-11T21:35:26.182Z,17.73
2022-09-11T21:37:52.642Z,17.60
2022-09-11T21:40:19.183Z,15.53
2022-09-11T21:42:45.692Z,15.73
2022-09-11T21:45:12.344Z,16.83
2022-09-11T21:47:38.821Z,17.97
2022-09-11T21:50:06.973Z,17.43
2022-09-11T21:52:33.975Z,16.43
2022-09-11T21:55:00.613Z,17.63
2022-09-11T21:57:28.776Z,18.13
2022-09-11T21:59:58.613Z,18.90
2022-09-11T22:02:26.099Z,17.73
2022-09-11T22:04:53.120Z,19.57
2022-09-11T22:07:20.053Z,20.40
2022-09-11T22:09:47.953Z,20.80
2022-09-11T22:12:14.942Z,21.17
2022-09-11T22:14:44.206Z,19.10
2022-09-11T22:17:11.778Z,22.23
2022-09-11T22:19:38.270Z,18.80
2022-09-11T22:22:04.978Z,17.70
2022-09-11T22:24:31.651Z,19.33
2022-09-11T22:26:58.128Z,17.67
2022-09-11T22:29:24.636Z,17.90
2022-09-11T22:31:51.223Z,16.70
2022-09-11T22:34:17.763Z,14.87
2022-09-11T22:36:44.207Z,15.87
2022-09-11T22:39:10.653Z,14.70
2022-09-11T22:41:37.098Z,13.27
2022-09-11T22:44:03.977Z,15.40
2022-09-11T22:46:30.415Z,14.00
2022-09-11T22:48:56.894Z,14.13
2022-09-11T22:51:23.603Z,13.83
2022-09-11T22:53:50.911Z,18.23
2022-09-11T22:56:17.359Z,14.43
2022-09-11T22:58:44.045Z,14.13
2022-09-11T23:01:12.124Z,14.57
2022-09-11T23:03:38.807Z,14.13
2022-09-11T23:06:24.030Z,13.13
2022-09-11T23:08:51.019Z,12.23
2022-09-11T23:11:19.802Z,14.00
2022-09-11T23:13:49.727Z,13.60
2022-09-11T23:16:21.572Z,13.23
2022-09-11T23:18:48.380Z,12.97
2022-09-11T23:21:15.507Z,13.20
2022-09-11T23:23:42.943Z,13.00
2022-09-11T23:26:13.720Z,13.00
2022-09-11T23:28:40.664Z,12.60
2022-09-11T23:31:13.939Z,12.07
2022-09-11T23:33:41.464Z,12.97
2022-09-11T23:36:09.658Z,12.77
2022-09-11T23:38:36.158Z,13.33
2022-09-11T23:41:02.605Z,13.50
2022-09-11T23:43:29.046Z,12.20
2022-09-11T23:45:55.690Z,13.20
2022-09-11T23:48:22.188Z,11.80
2022-09-11T23:50:48.835Z,11.83
2022-09-11T23:53:15.278Z,12.43
2022-09-11T23:55:42.459Z,12.27
2022-09-11T23:58:09.098Z,11.83
